createdAt,value
2022-11-14T00:00:31.795Z,4.8
2022-11-14T00:01:34.788Z,4.8
2022-11-14T00:02:36.852Z,4.8
2022-11-14T00:03:38.828Z,4.8
2022-11-14T00:04:40.784Z,4.7
2022-11-14T00:05:42.781Z,4.7
2022-11-14T00:06:44.860Z,4.8
2022-11-14T00:07:46.781Z,4.8
2022-11-14T00:08:48.795Z,4.8
2022-11-14T00:09:50.815Z,4.8
2022-11-14T00:10:52.799Z,4.8
2022-11-14T00:11:54.821Z,4.8
2022-11-14T00:12:56.792Z,4.8
2022-11-14T00:13:58.783Z,4.8
2022-11-14T00:15:00.804Z,4.8
2022-11-14T00:16:02.790Z,4.8
2022-11-14T00:17:04.790Z,4.8
2022-11-14T00:18:06.786Z,4.8
2022-11-14T00:19:08.794Z,4.8
2022-11-14T00:20:11.825Z,4.8
2022-11-14T00:21:14.805Z,4.8
2022-11-14T00:22:16.812Z,4.8
2022-11-14T00:23:18.795Z,4.8
2022-11-14T00:24:20.792Z,4.8
2022-11-14T00:25:22.795Z,4.7
2022-11-14T00:26:24.799Z,4.8
2022-11-14T00:27:26.865Z,4.7
2022-11-14T00:28:29.197Z,4.7
2022-11-14T00:29:30.803Z,4.8
2022-11-14T00:30:32.829Z,4.8
2022-11-14T00:31:34.788Z,4.8
2022-11-14T00:32:37.791Z,4.8
2022-11-14T00:33:39.791Z,4.7
2022-11-14T00:34:41.800Z,4.7
2022-11-14T00:35:43.839Z,4.7
2022-11-14T00:36:45.817Z,4.7
2022-11-14T00:37:47.806Z,4.7
2022-11-14T00:38:49.797Z,4.7
2022-11-14T00:39:52.806Z,4.7
2022-11-14T00:40:54.829Z,4.7
2022-11-14T00:41:56.801Z,4.7
2022-11-14T00:42:58.846Z,4.7
2022-11-14T00:44:00.801Z,4.7
2022-11-14T00:45:02.828Z,4.7
2022-11-14T00:46:04.827Z,4.7
2022-11-14T00:47:06.822Z,4.7
2022-11-14T00:48:08.839Z,4.7
2022-11-14T00:49:11.840Z,4.6
2022-11-14T00:50:14.809Z,4.6
2022-11-14T00:51:16.823Z,4.6
2022-11-14T00:52:18.833Z,4.6
2022-11-14T00:53:20.835Z,4.6
2022-11-14T00:54:22.811Z,4.6
2022-11-14T00:55:24.811Z,4.5
2022-11-14T00:56:26.813Z,4.5
2022-11-14T00:57:28.828Z,4.5
2022-11-14T00:58:31.282Z,4.5
2022-11-14T00:59:32.849Z,4.5
2022-11-14T01:00:34.903Z,4.5
2022-11-14T01:01:37.440Z,4.5
2022-11-14T01:02:39.431Z,4.5
2022-11-14T01:03:41.431Z,4.5
2022-11-14T01:04:43.442Z,4.5
2022-11-14T01:05:45.493Z,4.5
2022-11-14T01:06:47.438Z,4.5
2022-11-14T01:07:49.439Z,4.5
2022-11-14T01:08:51.519Z,4.5
2022-11-14T01:09:53.502Z,4.5
2022-11-14T01:10:57.246Z,4.5
2022-11-14T01:12:14.233Z,4.5
2022-11-14T01:21:41.900Z,4.5
2022-11-14T01:22:12.548Z,4.5
2022-11-14T01:23:14.575Z,4.5
2022-11-14T01:24:16.541Z,4.5
2022-11-14T01:25:18.586Z,4.5
2022-11-14T01:26:20.584Z,4.5
2022-11-14T01:27:22.547Z,4.4
2022-11-14T01:28:24.590Z,4.5
2022-11-14T01:29:26.540Z,4.5
2022-11-14T01:30:28.556Z,4.5
2022-11-14T01:32:10.173Z,4.5
2022-11-14T01:33:10.213Z,4.5
2022-11-14T01:34:10.179Z,4.5
2022-11-14T01:35:10.184Z,4.5
2022-11-14T01:36:10.172Z,4.5
2022-11-14T01:37:10.178Z,4.5
2022-11-14T01:38:10.181Z,4.5
2022-11-14T01:39:10.173Z,4.4
2022-11-14T01:40:10.181Z,4.4
2022-11-14T01:41:10.181Z,4.4
2022-11-14T01:42:10.230Z,4.4
2022-11-14T01:43:10.200Z,4.4
2022-11-14T01:44:10.186Z,4.4
2022-11-14T01:45:10.184Z,4.4
2022-11-14T01:46:10.177Z,4.4
2022-11-14T01:47:10.179Z,4.4
2022-11-14T01:48:10.237Z,4.4
2022-11-14T01:49:10.182Z,4.4
2022-11-14T01:50:10.567Z,4.4
2022-11-14T01:51:12.581Z,4.4
2022-11-14T01:52:14.562Z,4.4
2022-11-14T01:53:16.592Z,4.4
2022-11-14T01:54:18.576Z,4.3
2022-11-14T01:55:20.568Z,4.3
2022-11-14T01:56:22.558Z,4.3
2022-11-14T01:57:24.767Z,4.2
2022-11-14T01:58:27.095Z,4.2
2022-11-14T01:59:28.564Z,4.2
2022-11-14T02:00:30.571Z,4.1
2022-11-14T02:01:33.667Z,4.1
2022-11-14T02:02:35.580Z,4.1
2022-11-14T02:03:37.619Z,4.1
2022-11-14T02:04:39.573Z,4.1
2022-11-14T02:05:41.577Z,4.1
2022-11-14T02:06:44.573Z,4.1
2022-11-14T02:07:46.569Z,4.1
2022-11-14T02:08:48.611Z,4.1
2022-11-14T02:09:50.585Z,4.1
2022-11-14T02:11:57.598Z,4.1
2022-11-14T02:12:59.635Z,4.1
2022-11-14T02:14:01.621Z,4
2022-11-14T02:15:03.591Z,4
2022-11-14T02:16:05.577Z,4
2022-11-14T02:17:28.572Z,4
2022-11-14T02:18:09.582Z,4
2022-11-14T02:20:14.211Z,4
2022-11-14T02:21:16.194Z,4
2022-11-14T02:22:18.203Z,4
2022-11-14T02:23:20.194Z,4
2022-11-14T02:24:22.204Z,3.9
2022-11-14T02:25:24.214Z,4
2022-11-14T02:26:26.209Z,3.9
2022-11-14T02:27:28.205Z,3.9
2022-11-14T02:28:30.474Z,3.9
2022-11-14T02:29:32.242Z,3.9
2022-11-14T02:30:34.195Z,3.9
2022-11-14T02:31:36.208Z,3.9
2022-11-14T02:33:09.626Z,3.9
2022-11-14T02:33:40.201Z,3.9
2022-11-14T02:34:42.250Z,3.8
2022-11-14T02:36:10.229Z,3.8
2022-11-14T02:37:10.254Z,3.8
2022-11-14T02:38:10.217Z,3.8
2022-11-14T02:39:10.217Z,3.9
2022-11-14T02:40:10.217Z,3.9
2022-11-14T02:41:10.226Z,4
2022-11-14T02:42:10.230Z,4
2022-11-14T02:43:10.222Z,4
2022-11-14T02:44:10.248Z,4.1
2022-11-14T02:45:10.218Z,4.1
2022-11-14T02:46:10.219Z,4.1
2022-11-14T02:47:10.223Z,4.1
2022-11-14T02:49:10.438Z,4.2
2022-11-14T02:50:12.274Z,4.2
2022-11-14T02:51:14.214Z,4.2
2022-11-14T02:52:16.221Z,4.2
2022-11-14T02:53:18.222Z,4.2
2022-11-14T02:55:22.255Z,4.2
2022-11-14T02:56:24.227Z,4.2
2022-11-14T02:57:26.217Z,4.2
2022-11-14T02:58:28.546Z,4.2
2022-11-14T02:59:30.221Z,4.2
2022-11-14T03:00:32.292Z,4.2
2022-11-14T03:01:34.245Z,4.3
2022-11-14T03:02:36.226Z,4.3
2022-11-14T03:03:38.231Z,4.3
2022-11-14T03:04:40.263Z,4.3
2022-11-14T03:05:43.294Z,4.3
2022-11-14T03:06:45.263Z,4.3
2022-11-14T03:07:47.221Z,4.3
2022-11-14T03:08:49.239Z,4.3
2022-11-14T03:09:51.239Z,4.4
2022-11-14T03:10:54.290Z,4.4
2022-11-14T03:11:57.331Z,4.4
2022-11-14T03:12:59.241Z,4.4
2022-11-14T03:15:15.642Z,4.4
2022-11-14T03:17:07.276Z,4.5
2022-11-14T03:18:09.245Z,4.5
2022-11-14T03:19:14.872Z,4.5
2022-11-14T03:20:17.873Z,4.5
2022-11-14T03:21:20.102Z,4.5
2022-11-14T03:22:23.106Z,4.5
2022-11-14T03:23:25.109Z,4.5
2022-11-14T03:24:27.152Z,4.5
2022-11-14T03:25:29.108Z,4.5
2022-11-14T03:26:31.150Z,4.5
2022-11-14T03:27:33.122Z,4.5
2022-11-14T03:28:35.117Z,4.5
2022-11-14T03:29:37.139Z,4.5
2022-11-14T03:30:39.121Z,4.5
2022-11-14T03:31:41.115Z,4.5
2022-11-14T03:32:43.110Z,4.5
2022-11-14T03:33:45.110Z,4.5
2022-11-14T03:34:47.145Z,4.5
2022-11-14T03:35:49.141Z,4.5
2022-11-14T03:36:51.124Z,4.5
2022-11-14T03:37:56.302Z,4.5
2022-11-14T03:38:55.131Z,4.5
2022-11-14T03:39:57.153Z,4.5
2022-11-14T03:40:59.137Z,4.5
2022-11-14T03:42:01.170Z,4.5
2022-11-14T03:43:03.271Z,4.5
2022-11-14T03:44:05.137Z,4.6
2022-11-14T03:45:21.679Z,4.6
2022-11-14T03:46:10.126Z,4.5
2022-11-14T03:47:12.122Z,4.6
2022-11-14T03:48:14.131Z,4.6
2022-11-14T03:50:32.373Z,4.6
2022-11-14T03:51:34.327Z,4.6
2022-11-14T03:52:36.336Z,4.6
2022-11-14T03:53:38.365Z,4.6
2022-11-14T03:54:40.366Z,4.6
2022-11-14T03:55:42.371Z,4.6
2022-11-14T03:56:44.360Z,4.6
2022-11-14T03:57:46.332Z,4.7
2022-11-14T03:58:48.336Z,4.7
2022-11-14T03:59:50.327Z,4.6
2022-11-14T04:00:52.432Z,4.6
2022-11-14T04:01:54.329Z,4.6
2022-11-14T04:02:56.334Z,4.6
2022-11-14T04:03:58.346Z,4.6
2022-11-14T04:05:01.337Z,4.6
2022-11-14T04:06:03.343Z,4.6
2022-11-14T04:07:05.351Z,4.6
2022-11-14T04:08:07.346Z,4.5
2022-11-14T04:09:09.362Z,4.6
2022-11-14T04:10:11.383Z,4.5
2022-11-14T04:11:14.354Z,4.5
2022-11-14T04:12:17.338Z,4.5
2022-11-14T04:13:20.338Z,4.5
2022-11-14T04:14:22.342Z,4.5
2022-11-14T04:15:24.388Z,4.5
2022-11-14T04:16:26.343Z,4.5
2022-11-14T04:17:28.347Z,4.5
2022-11-14T04:18:30.803Z,4.4
2022-11-14T04:19:32.377Z,4.4
2022-11-14T04:20:34.350Z,4.4
2022-11-14T04:21:36.349Z,4.4
2022-11-14T04:22:39.029Z,4.4
2022-11-14T04:23:40.340Z,4.3
2022-11-14T04:24:42.377Z,4.3
2022-11-14T04:25:44.345Z,4.2
2022-11-14T04:26:46.348Z,4.2
2022-11-14T04:27:48.353Z,4.2
2022-11-14T04:28:50.349Z,4.2
2022-11-14T04:29:52.349Z,4.2
2022-11-14T04:30:54.363Z,4.2
2022-11-14T04:31:56.350Z,4.2
2022-11-14T04:32:58.346Z,4.2
2022-11-14T04:34:00.360Z,4.2
2022-11-14T04:35:02.362Z,4.2
2022-11-14T04:36:04.351Z,4.2
2022-11-14T04:37:06.352Z,4.3
2022-11-14T04:38:08.357Z,4.3
2022-11-14T04:39:10.397Z,4.3
2022-11-14T04:40:12.368Z,4.4
2022-11-14T04:41:14.363Z,4.4
2022-11-14T04:42:18.360Z,4.4
2022-11-14T04:43:20.364Z,4.4
2022-11-14T04:44:22.358Z,4.4
2022-11-14T04:45:24.431Z,4.4
2022-11-14T04:46:27.400Z,4.4
2022-11-14T04:47:29.360Z,4.4
2022-11-14T04:48:31.683Z,4.5
2022-11-14T04:49:33.359Z,4.5
2022-11-14T04:50:35.357Z,4.5
2022-11-14T04:52:24.752Z,4.5
2022-11-14T04:53:10.328Z,4.5
2022-11-14T04:54:10.329Z,4.5
2022-11-14T04:55:10.315Z,4.5
2022-11-14T04:56:10.312Z,4.5
2022-11-14T04:57:10.343Z,4.5
2022-11-14T04:58:10.310Z,4.5
2022-11-14T04:59:10.308Z,4.5
2022-11-14T05:00:10.334Z,4.5
2022-11-14T05:01:10.340Z,4.5
2022-11-14T05:02:10.338Z,4.5
2022-11-14T05:03:10.315Z,4.5
2022-11-14T05:04:10.319Z,4.5
2022-11-14T05:05:10.326Z,4.5
2022-11-14T05:06:10.311Z,4.5
2022-11-14T05:07:10.381Z,4.5
2022-11-14T05:08:10.920Z,4.5
2022-11-14T05:09:12.919Z,4.5
2022-11-14T05:10:14.950Z,4.4
2022-11-14T05:11:16.921Z,4.4
2022-11-14T05:12:19.953Z,4.4
2022-11-14T05:13:22.922Z,4.4
2022-11-14T05:14:24.928Z,4.5
2022-11-14T05:15:26.964Z,4.5
2022-11-14T05:16:28.927Z,4.5
2022-11-14T05:17:31.002Z,4.4
2022-11-14T05:18:33.141Z,4.4
2022-11-14T05:19:34.932Z,4.5
2022-11-14T05:20:36.922Z,4.5
2022-11-14T05:21:38.957Z,4.4
2022-11-14T05:22:40.970Z,4.4
2022-11-14T05:23:43.930Z,4.4
2022-11-14T05:24:45.932Z,4.4
2022-11-14T05:25:47.920Z,4.4
2022-11-14T05:26:49.948Z,4.4
2022-11-14T05:27:51.933Z,4.4
2022-11-14T05:28:53.928Z,4.4
2022-11-14T05:29:55.960Z,4.4
2022-11-14T05:30:58.926Z,4.4
2022-11-14T05:32:00.980Z,4.4
2022-11-14T05:33:02.988Z,4.4
2022-11-14T05:34:04.934Z,4.4
2022-11-14T05:35:06.945Z,4.5
2022-11-14T05:36:08.941Z,4.5
2022-11-14T05:37:10.980Z,4.5
2022-11-14T05:38:12.973Z,4.5
2022-11-14T05:39:14.936Z,4.5
2022-11-14T05:40:16.950Z,4.5
2022-11-14T05:41:19.959Z,4.5
2022-11-14T05:42:22.944Z,4.5
2022-11-14T05:43:24.987Z,4.6
2022-11-14T05:44:26.943Z,4.6
2022-11-14T05:45:28.939Z,4.6
2022-11-14T05:46:30.948Z,4.6
2022-11-14T05:47:32.947Z,4.6
2022-11-14T05:48:36.020Z,4.6
2022-11-14T05:49:37.952Z,4.6
2022-11-14T05:50:39.952Z,4.6
2022-11-14T05:51:41.953Z,4.6
2022-11-14T05:52:43.949Z,4.6
2022-11-14T05:53:46.143Z,4.6
2022-11-14T05:54:48.950Z,4.6
2022-11-14T05:55:50.954Z,4.6
2022-11-14T05:56:52.951Z,4.6
2022-11-14T05:57:54.953Z,4.7
2022-11-14T05:58:58.150Z,4.7
2022-11-14T05:59:59.953Z,4.7
2022-11-14T06:01:01.964Z,4.7
2022-11-14T06:02:04.031Z,4.7
2022-11-14T06:03:05.960Z,4.7
2022-11-14T06:04:07.997Z,4.7
2022-11-14T06:05:09.965Z,4.7
2022-11-14T06:06:11.952Z,4.7
2022-11-14T06:07:18.808Z,4.7
2022-11-14T06:08:15.950Z,4.6
2022-11-14T06:09:19.977Z,4.6
2022-11-14T06:10:22.997Z,4.7
2022-11-14T06:11:24.978Z,4.6
2022-11-14T06:12:26.969Z,4.6
2022-11-14T06:13:28.971Z,4.6
2022-11-14T06:14:30.964Z,4.6
2022-11-14T06:15:33.011Z,4.6
2022-11-14T06:16:34.976Z,4.6
2022-11-14T06:17:36.961Z,4.6
2022-11-14T06:18:38.991Z,4.6
2022-11-14T06:19:40.972Z,4.7
2022-11-14T06:20:42.992Z,4.6
2022-11-14T06:21:44.967Z,4.6
2022-11-14T06:22:46.969Z,4.7
2022-11-14T06:23:48.977Z,4.7
2022-11-14T06:24:50.966Z,4.7
2022-11-14T06:25:53.007Z,4.7
2022-11-14T06:26:54.971Z,4.7
2022-11-14T06:27:56.973Z,4.7
2022-11-14T06:28:58.976Z,4.7
2022-11-14T06:30:00.985Z,4.7
2022-11-14T06:31:02.995Z,4.7
2022-11-14T06:32:04.979Z,4.7
2022-11-14T06:33:07.975Z,4.7
2022-11-14T06:34:09.990Z,4.7
2022-11-14T06:35:11.986Z,4.7
2022-11-14T06:36:13.995Z,4.7
2022-11-14T06:37:16.979Z,4.6
2022-11-14T06:38:19.989Z,4.6
2022-11-14T06:39:23.979Z,4.6
2022-11-14T06:40:25.976Z,4.6
2022-11-14T06:41:28.103Z,4.6
2022-11-14T06:42:29.983Z,4.6
2022-11-14T06:43:31.976Z,4.6
2022-11-14T06:44:33.990Z,4.6
2022-11-14T06:45:36.011Z,4.6
2022-11-14T06:46:38.004Z,4.6
2022-11-14T06:48:41.979Z,4.6
2022-11-14T06:49:44.991Z,4.6
2022-11-14T06:50:47.019Z,4.6
2022-11-14T06:51:48.987Z,4.6
2022-11-14T06:52:50.986Z,4.6
2022-11-14T06:53:53.000Z,4.6
2022-11-14T06:54:54.989Z,4.6
2022-11-14T06:55:56.993Z,4.7
2022-11-14T06:56:59.010Z,4.7
2022-11-14T06:58:00.987Z,4.7
2022-11-14T06:59:02.988Z,4.7
2022-11-14T07:00:06.010Z,4.7
2022-11-14T07:01:07.994Z,4.7
2022-11-14T07:02:09.995Z,4.7
2022-11-14T07:03:12.058Z,4.7
2022-11-14T07:04:13.999Z,4.8
2022-11-14T07:05:16.042Z,4.8
2022-11-14T07:06:18.003Z,4.8
2022-11-14T07:07:20.143Z,4.8
2022-11-14T07:08:24.007Z,4.8
2022-11-14T07:09:26.013Z,4.8
2022-11-14T07:10:28.000Z,4.8
2022-11-14T07:11:30.001Z,4.8
2022-11-14T07:12:32.036Z,4.8
2022-11-14T07:13:33.997Z,4.8
2022-11-14T07:14:35.999Z,4.8
2022-11-14T07:15:38.003Z,4.8
2022-11-14T07:16:41.004Z,4.8
2022-11-14T07:17:43.062Z,4.8
2022-11-14T07:18:45.011Z,4.8
2022-11-14T07:19:47.013Z,4.8
2022-11-14T07:20:49.008Z,4.8
2022-11-14T07:21:51.009Z,4.8
2022-11-14T07:22:53.041Z,4.8
2022-11-14T07:23:55.003Z,4.8
2022-11-14T07:24:57.015Z,4.8
2022-11-14T07:26:00.016Z,4.8
2022-11-14T07:27:02.016Z,4.8
2022-11-14T07:28:04.055Z,4.8
2022-11-14T07:29:06.018Z,4.8
2022-11-14T07:30:08.025Z,4.8
2022-11-14T07:32:12.014Z,4.7
2022-11-14T07:33:14.309Z,4.7
2022-11-14T07:34:16.017Z,4.7
2022-11-14T07:35:20.066Z,4.7
2022-11-14T07:38:27.418Z,4.8
2022-11-14T07:39:29.147Z,4.8
2022-11-14T07:40:31.179Z,4.8
2022-11-14T07:42:10.415Z,4.8
2022-11-14T07:43:56.701Z,4.8
2022-11-14T07:44:58.706Z,4.8
2022-11-14T07:46:12.832Z,4.8
2022-11-14T07:47:02.706Z,4.8
2022-11-14T07:48:04.892Z,4.8
2022-11-14T07:49:06.700Z,4.8
2022-11-14T07:50:08.706Z,4.8
2022-11-14T07:51:24.959Z,4.8
2022-11-14T07:52:13.188Z,4.8
2022-11-14T07:53:14.863Z,4.8
2022-11-14T07:54:16.704Z,4.8
2022-11-14T07:55:18.710Z,4.8
2022-11-14T07:56:20.703Z,4.8
2022-11-14T07:57:30.358Z,4.8
2022-11-14T07:58:32.483Z,4.8
2022-11-14T07:59:34.167Z,4.9
2022-11-14T08:00:36.258Z,4.9
2022-11-14T08:01:38.195Z,4.9
2022-11-14T08:02:40.167Z,4.9
2022-11-14T08:03:45.666Z,4.9
2022-11-14T08:04:44.163Z,4.9
2022-11-14T08:05:46.211Z,4.9
2022-11-14T08:06:48.286Z,5
2022-11-14T08:07:51.167Z,5
2022-11-14T08:08:53.164Z,5
2022-11-14T08:09:55.170Z,5
2022-11-14T08:10:57.191Z,5
2022-11-14T08:11:59.169Z,5
2022-11-14T08:13:25.134Z,5
2022-11-14T08:14:03.169Z,5
2022-11-14T08:15:05.190Z,5
2022-11-14T08:16:12.364Z,5
2022-11-14T08:17:10.173Z,5
2022-11-14T08:18:12.182Z,5
2022-11-14T08:19:14.177Z,5
2022-11-14T08:20:16.181Z,5
2022-11-14T08:21:18.214Z,5
2022-11-14T08:22:20.186Z,5
2022-11-14T08:23:22.181Z,5
2022-11-14T08:24:25.192Z,5
2022-11-14T08:25:27.178Z,5
2022-11-14T08:26:34.048Z,5.1
2022-11-14T08:27:32.247Z,5.1
2022-11-14T08:28:34.354Z,5.1
2022-11-14T08:29:38.184Z,5.1
2022-11-14T08:30:40.178Z,5.1
2022-11-14T08:31:43.233Z,5.1
2022-11-14T08:32:45.180Z,5.1
2022-11-14T08:33:47.193Z,5
2022-11-14T08:34:49.228Z,5.1
2022-11-14T08:35:51.189Z,5.1
2022-11-14T08:36:53.194Z,5.1
2022-11-14T08:37:55.183Z,5.1
2022-11-14T08:39:01.478Z,5.1
2022-11-14T08:39:59.231Z,5.1
2022-11-14T08:41:01.187Z,5.1
2022-11-14T08:42:03.258Z,5.1
2022-11-14T08:43:05.231Z,5.1
2022-11-14T08:44:07.196Z,5.1
2022-11-14T08:45:09.240Z,5.1
2022-11-14T08:46:11.225Z,5.2
2022-11-14T08:47:13.198Z,5.1
2022-11-14T08:48:15.204Z,5.2
2022-11-14T08:49:18.201Z,5.2
2022-11-14T08:50:20.239Z,5.2
2022-11-14T08:51:22.190Z,5.2
2022-11-14T08:52:24.229Z,5.2
2022-11-14T08:53:26.246Z,5.2
2022-11-14T08:54:28.200Z,5.2
2022-11-14T08:55:30.196Z,5.2
2022-11-14T08:56:32.203Z,5.2
2022-11-14T08:57:34.254Z,5.2
2022-11-14T08:58:37.207Z,5.2
2022-11-14T08:59:39.206Z,5.2
2022-11-14T09:00:41.201Z,5.3
2022-11-14T09:01:43.206Z,5.2
2022-11-14T09:02:45.310Z,5.2
2022-11-14T09:03:47.380Z,5.2
2022-11-14T09:04:49.344Z,5.3
2022-11-14T09:05:51.251Z,5.3
2022-11-14T09:06:53.367Z,5.3
2022-11-14T09:08:57.332Z,5.3
2022-11-14T09:09:59.245Z,5.3
2022-11-14T09:11:04.893Z,5.4
2022-11-14T09:12:03.221Z,5.4
2022-11-14T09:13:05.217Z,5.4
2022-11-14T09:14:07.215Z,5.4
2022-11-14T09:15:09.228Z,5.4
2022-11-14T09:16:12.216Z,5.4
2022-11-14T09:17:14.234Z,5.4
2022-11-14T09:18:16.221Z,5.4
2022-11-14T09:19:18.210Z,5.4
2022-11-14T09:20:20.213Z,5.4
2022-11-14T09:21:22.218Z,5.4
2022-11-14T09:22:24.263Z,5.5
2022-11-14T09:23:26.271Z,5.5
2022-11-14T09:24:29.220Z,5.5
2022-11-14T09:25:31.229Z,5.5
2022-11-14T09:26:34.240Z,5.5
2022-11-14T09:27:37.219Z,5.5
2022-11-14T09:28:39.262Z,5.5
2022-11-14T09:29:41.219Z,5.5
2022-11-14T09:30:43.223Z,5.5
2022-11-14T09:31:45.223Z,5.5
2022-11-14T09:32:47.251Z,5.5
2022-11-14T09:33:49.247Z,5.5
2022-11-14T09:34:51.225Z,5.5
2022-11-14T09:35:53.231Z,5.5
2022-11-14T09:36:55.238Z,5.6
2022-11-14T09:37:57.247Z,5.6
2022-11-14T09:38:59.247Z,5.6
2022-11-14T09:40:02.239Z,5.6
2022-11-14T09:41:04.239Z,5.6
2022-11-14T09:42:06.238Z,5.6
2022-11-14T09:44:10.270Z,5.6
2022-11-14T09:47:20.800Z,5.6
2022-11-14T09:48:19.242Z,5.6
2022-11-14T09:49:21.255Z,5.6
2022-11-14T09:50:26.051Z,5.6
2022-11-14T09:51:25.274Z,5.6
2022-11-14T09:52:27.234Z,5.6
2022-11-14T09:53:29.255Z,5.6
2022-11-14T09:54:31.247Z,5.7
2022-11-14T09:55:36.907Z,5.7
2022-11-14T09:56:37.611Z,5.7
2022-11-14T09:57:39.233Z,5.7
2022-11-14T09:58:42.281Z,5.7
2022-11-14T09:59:44.252Z,5.8
2022-11-14T10:00:46.250Z,5.8
2022-11-14T10:02:00.934Z,5.8
2022-11-14T10:02:50.256Z,5.8
2022-11-14T10:03:52.248Z,5.8
2022-11-14T10:04:54.288Z,5.8
2022-11-14T10:05:56.405Z,5.9
2022-11-14T10:07:10.748Z,5.9
2022-11-14T10:08:10.516Z,5.8
2022-11-14T10:09:10.527Z,5.9
2022-11-14T10:10:10.512Z,5.9
2022-11-14T10:11:10.532Z,5.9
2022-11-14T10:12:10.551Z,5.9
2022-11-14T10:13:11.135Z,5.9
2022-11-14T10:14:13.147Z,5.9
2022-11-14T10:15:15.144Z,5.9
2022-11-14T10:16:17.140Z,5.9
2022-11-14T10:17:19.140Z,5.9
2022-11-14T10:18:22.140Z,5.9
2022-11-14T10:19:24.139Z,6
2022-11-14T10:20:26.155Z,6
2022-11-14T10:21:28.139Z,6
2022-11-14T10:22:30.196Z,6
2022-11-14T10:23:34.186Z,6
2022-11-14T10:24:37.148Z,6
2022-11-14T10:25:43.865Z,6
2022-11-14T10:26:41.150Z,6
2022-11-14T10:27:43.174Z,6
2022-11-14T10:28:46.154Z,5.9
2022-11-14T10:29:48.152Z,5.9
2022-11-14T10:30:50.348Z,5.9
2022-11-14T10:31:52.156Z,6
2022-11-14T10:32:54.185Z,6
2022-11-14T10:33:56.160Z,6
2022-11-14T10:34:58.156Z,5.9
2022-11-14T10:36:00.135Z,5.9
2022-11-14T10:37:02.167Z,5.9
2022-11-14T10:38:04.170Z,6
2022-11-14T10:39:06.150Z,6
2022-11-14T10:40:08.169Z,5.9
2022-11-14T10:41:19.261Z,6
2022-11-14T10:42:12.159Z,5.9
2022-11-14T10:43:14.160Z,5.9
2022-11-14T10:44:16.156Z,5.9
2022-11-14T10:45:18.239Z,5.9
2022-11-14T10:46:20.222Z,5.9
2022-11-14T10:47:22.193Z,5.9
2022-11-14T10:48:24.161Z,5.9
2022-11-14T10:49:26.162Z,5.9
2022-11-14T10:50:28.166Z,6
2022-11-14T10:52:32.807Z,6
2022-11-14T10:53:34.809Z,6
2022-11-14T10:54:36.894Z,6
2022-11-14T10:56:03.267Z,6
2022-11-14T10:56:40.820Z,6
2022-11-14T10:57:43.878Z,6
2022-11-14T10:58:48.729Z,6
2022-11-14T10:59:47.813Z,6
2022-11-14T11:00:51.921Z,6
2022-11-14T11:01:54.815Z,6
2022-11-14T11:02:56.828Z,6
2022-11-14T11:03:58.903Z,6
2022-11-14T11:05:00.820Z,6.1
2022-11-14T11:06:02.853Z,6.1
2022-11-14T11:07:04.887Z,6
2022-11-14T11:08:28.591Z,6.1
2022-11-14T11:09:08.883Z,6.1
2022-11-14T11:10:10.864Z,6.1
2022-11-14T11:11:13.825Z,6.1
2022-11-14T11:12:15.847Z,6.2
2022-11-14T11:13:17.838Z,6.2
2022-11-14T11:14:19.831Z,6.2
2022-11-14T11:15:21.886Z,6.2
2022-11-14T11:16:24.822Z,6.2
2022-11-14T11:17:32.054Z,6.2
2022-11-14T11:18:29.103Z,6.2
2022-11-14T11:20:10.605Z,6.1
2022-11-14T11:21:10.657Z,6.1
2022-11-14T11:22:10.580Z,6.1
2022-11-14T11:23:10.564Z,6.1
2022-11-14T11:24:10.571Z,6.2
2022-11-14T11:25:10.642Z,6.2
2022-11-14T11:26:10.595Z,6.2
2022-11-14T11:28:10.571Z,6.2
2022-11-14T11:29:10.575Z,6.3
2022-11-14T11:30:10.600Z,6.3
2022-11-14T11:31:10.585Z,6.3
2022-11-14T11:32:10.603Z,6.3
2022-11-14T11:33:10.594Z,6.4
2022-11-14T11:34:10.575Z,6.4
2022-11-14T11:35:10.577Z,6.4
2022-11-14T11:36:10.612Z,6.4
2022-11-14T11:37:11.865Z,6.5
2022-11-14T11:38:15.889Z,6.5
2022-11-14T11:39:16.862Z,6.5
2022-11-14T11:40:18.891Z,6.5
2022-11-14T11:42:00.908Z,6.6
2022-11-14T11:42:24.895Z,6.6
2022-11-14T11:43:39.866Z,6.6
2022-11-14T11:44:28.850Z,6.6
2022-11-14T11:45:31.849Z,6.6
2022-11-14T11:46:33.843Z,6.6
2022-11-14T11:47:35.899Z,6.6
2022-11-14T11:48:38.854Z,6.6
2022-11-14T11:49:40.849Z,6.5
2022-11-14T11:50:42.856Z,6.6
2022-11-14T11:51:44.853Z,6.6
2022-11-14T11:53:48.898Z,6.6
2022-11-14T11:54:51.916Z,6.6
2022-11-14T11:55:54.887Z,6.6
2022-11-14T11:56:56.867Z,6.6
2022-11-14T11:57:59.862Z,6.6
2022-11-14T11:59:01.864Z,6.6
2022-11-14T12:00:04.869Z,6.6
2022-11-14T12:01:06.903Z,6.6
2022-11-14T12:02:13.043Z,6.6
2022-11-14T12:03:11.012Z,6.6
2022-11-14T12:04:12.991Z,6.6
2022-11-14T12:05:15.863Z,6.6
2022-11-14T12:06:17.861Z,6.5
2022-11-14T12:07:20.020Z,6.5
2022-11-14T12:08:21.954Z,6.5
2022-11-14T12:09:29.470Z,6.4
2022-11-14T12:10:25.917Z,6.4
2022-11-14T12:11:27.891Z,6.4
2022-11-14T12:12:29.869Z,6.4
2022-11-14T12:13:33.197Z,6.4
2022-11-14T12:14:34.862Z,6.4
2022-11-14T12:15:37.857Z,6.4
2022-11-14T12:16:39.865Z,6.4
2022-11-14T12:17:41.874Z,6.4
2022-11-14T12:18:43.872Z,6.4
2022-11-14T12:19:45.874Z,6.3
2022-11-14T12:20:47.875Z,6.3
2022-11-14T12:21:57.356Z,6.3
2022-11-14T12:22:54.875Z,6.3
2022-11-14T12:23:57.888Z,6.2
2022-11-14T12:26:01.927Z,6.2
2022-11-14T12:27:04.935Z,6.1
2022-11-14T12:28:07.996Z,6.1
2022-11-14T12:29:25.249Z,6.1
2022-11-14T12:30:11.898Z,6.1
2022-11-14T12:31:13.890Z,6
2022-11-14T12:32:15.932Z,6.1
2022-11-14T12:33:17.934Z,6.1
2022-11-14T12:34:19.929Z,6.1
2022-11-14T12:35:21.956Z,6.1
2022-11-14T12:36:23.889Z,6.1
2022-11-14T12:37:28.977Z,6.1
2022-11-14T12:38:30.880Z,6.1
2022-11-14T12:39:32.893Z,6.1
2022-11-14T12:40:34.890Z,6.1
2022-11-14T12:41:36.934Z,6.1
2022-11-14T12:42:39.921Z,6.1
2022-11-14T12:43:42.254Z,6.1
2022-11-14T12:44:43.890Z,6.1
2022-11-14T12:45:46.895Z,6.1
2022-11-14T12:46:48.890Z,6.1
2022-11-14T12:47:51.995Z,6.1
2022-11-14T12:48:54.943Z,6.1
2022-11-14T12:49:56.897Z,6.2
2022-11-14T12:50:59.893Z,6.2
2022-11-14T12:52:01.893Z,6.2
2022-11-14T12:53:03.952Z,6.2
2022-11-14T12:54:05.905Z,6.2
2022-11-14T12:55:07.895Z,6.2
2022-11-14T12:56:10.938Z,6.2
2022-11-14T12:57:12.895Z,6.3
2022-11-14T12:58:15.944Z,6.3
2022-11-14T12:59:17.916Z,6.3
2022-11-14T13:00:20.917Z,6.3
2022-11-14T13:01:22.995Z,6.3
2022-11-14T13:03:10.861Z,6.4
2022-11-14T13:04:10.842Z,6.4
2022-11-14T13:05:10.644Z,6.4
2022-11-14T13:06:10.643Z,6.4
2022-11-14T13:07:10.686Z,6.4
2022-11-14T13:08:10.662Z,6.4
2022-11-14T13:09:10.667Z,6.4
2022-11-14T13:10:10.684Z,6.4
2022-11-14T13:11:10.632Z,6.4
2022-11-14T13:12:10.651Z,6.5
2022-11-14T13:13:10.656Z,6.4
2022-11-14T13:14:10.679Z,6.4
2022-11-14T13:15:10.689Z,6.4
2022-11-14T13:16:10.656Z,6.4
2022-11-14T13:17:10.655Z,6.5
2022-11-14T13:18:10.697Z,6.5
2022-11-14T13:19:10.652Z,6.5
2022-11-14T13:20:10.744Z,6.5
2022-11-14T13:21:10.664Z,6.5
2022-11-14T13:22:10.660Z,6.5
2022-11-14T13:23:10.658Z,6.5
2022-11-14T13:24:11.167Z,6.5
2022-11-14T13:25:12.949Z,6.5
2022-11-14T13:26:14.915Z,6.5
2022-11-14T13:27:16.934Z,6.6
2022-11-14T13:28:24.963Z,6.6
2022-11-14T13:29:21.914Z,6.6
2022-11-14T13:30:23.946Z,6.6
2022-11-14T13:31:26.926Z,6.5
2022-11-14T13:32:28.925Z,6.6
2022-11-14T13:33:31.355Z,6.6
2022-11-14T13:34:32.926Z,6.6
2022-11-14T13:35:34.972Z,6.6
2022-11-14T13:36:36.984Z,6.6
2022-11-14T13:37:38.926Z,6.6
2022-11-14T13:38:46.276Z,6.7
2022-11-14T13:39:48.279Z,6.7
2022-11-14T13:40:52.345Z,6.7
2022-11-14T13:41:55.281Z,6.6
2022-11-14T13:42:57.279Z,6.6
2022-11-14T13:43:59.287Z,6.6
2022-11-14T13:45:01.291Z,6.7
2022-11-14T13:46:04.384Z,6.6
2022-11-14T13:47:06.293Z,6.6
2022-11-14T13:48:08.301Z,6.5
2022-11-14T13:51:43.024Z,6.6
2022-11-14T13:52:32.445Z,6.6
2022-11-14T13:54:13.486Z,6.5
2022-11-14T13:55:10.683Z,6.5
2022-11-14T13:56:10.675Z,6.5
2022-11-14T13:57:10.711Z,6.5
2022-11-14T13:58:10.674Z,6.5
2022-11-14T13:59:10.693Z,6.5
2022-11-14T14:00:14.151Z,6.4
2022-11-14T14:01:10.817Z,6.4
2022-11-14T14:02:10.702Z,6.5
2022-11-14T14:03:10.680Z,6.4
2022-11-14T14:04:10.683Z,6.4
2022-11-14T14:05:10.692Z,6.4
2022-11-14T14:06:10.990Z,6.4
2022-11-14T14:07:10.938Z,6.4
2022-11-14T14:08:10.699Z,6.3
2022-11-14T14:09:10.702Z,6.3
2022-11-14T14:10:10.683Z,6.3
2022-11-14T14:11:10.832Z,6.2
2022-11-14T14:12:12.374Z,6.2
2022-11-14T14:13:14.370Z,6.2
2022-11-14T14:14:16.388Z,6.2
2022-11-14T14:15:18.371Z,6.1
2022-11-14T14:16:21.405Z,6.1
2022-11-14T14:17:24.376Z,6.1
2022-11-14T14:18:26.425Z,6.1
2022-11-14T14:20:10.688Z,6.1
2022-11-14T14:21:10.758Z,6
2022-11-14T14:22:10.764Z,6
2022-11-14T14:23:10.682Z,6
2022-11-14T14:24:10.710Z,5.9
2022-11-14T14:25:10.701Z,5.9
2022-11-14T14:26:10.741Z,5.9
2022-11-14T14:27:10.768Z,5.9
2022-11-14T14:28:10.699Z,5.9
2022-11-14T14:29:10.780Z,5.9
2022-11-14T14:30:10.704Z,5.9
2022-11-14T14:31:10.699Z,5.9
2022-11-14T14:32:10.744Z,5.9
2022-11-14T14:35:10.709Z,5.8
2022-11-14T14:36:10.703Z,5.8
2022-11-14T14:37:10.731Z,5.8
2022-11-14T14:38:10.702Z,5.8
2022-11-14T14:39:10.703Z,5.8
2022-11-14T14:40:10.709Z,5.7
2022-11-14T14:41:10.771Z,5.7
2022-11-14T14:42:10.767Z,5.7
2022-11-14T14:43:10.702Z,5.7
2022-11-14T14:44:10.711Z,5.7
2022-11-14T14:45:10.716Z,5.7
2022-11-14T14:46:10.710Z,5.7
2022-11-14T14:47:10.774Z,5.7
2022-11-14T14:48:10.731Z,5.7
2022-11-14T14:49:10.741Z,5.7
2022-11-14T14:51:10.759Z,5.7
2022-11-14T14:52:10.743Z,5.6
2022-11-14T14:53:10.712Z,5.7
2022-11-14T14:54:10.731Z,5.7
2022-11-14T14:55:10.718Z,5.7